Kitanomaru — JD2835 — position and weather

sailwx.info

Track history (hours):
 
Tides and Currents Weather Stations Pressure Air Temp Water Temp Dewpoint Dewpoint Depression Visibility Wind Speed Wind Dir Waves Ship Positions

Kitanomaru

Last reported at 2018-Apr-23 11:30 UTC. Time now 2018-Apr-23 11:45 UTC.
Position N 35°36' E 140°07'.

Length 39 m; draft 4 m.

Type: Tug. MMSI: 431000773.

Date/timePositionNaut miles runAvg speedWind from/ knotsBaromVisibWave heightAir tempDewpointWater temp
2018-Apr-23 11:30N 35°36' E 140°07'0 0.0
2018-Apr-23 11:00N 35°36' E 140°07'0 0.0
2018-Apr-23 10:30N 35°36' E 140°07'0 0.0
2018-Apr-23 10:00N 35°36' E 140°07'0 0.0
2018-Apr-23 09:30N 35°36' E 140°07'0 0.0
2018-Apr-23 09:00N 35°36' E 140°07'0 0.0
2018-Apr-23 08:30N 35°36' E 140°07'0 0.0
2018-Apr-23 08:00N 35°36' E 140°07'0 0.0
2018-Apr-23 07:30N 35°36' E 140°07'0 0.0
2018-Apr-23 07:00N 35°36' E 140°07'0 0.0
2018-Apr-23 06:30N 35°36' E 140°07'0 0.0
2018-Apr-23 06:00N 35°36' E 140°07'0 0.0
2018-Apr-23 05:30N 35°36' E 140°07'0 0.0
2018-Apr-23 05:00N 35°36' E 140°07'0 0.0
2018-Apr-23 04:30N 35°36' E 140°07'0 0.0
2018-Apr-23 04:00N 35°36' E 140°07'0 0.0
2018-Apr-23 03:31N 35°36' E 140°07'0 0.0
2018-Apr-23 02:58N 35°36' E 140°07'0 0.0
2018-Apr-23 02:29N 35°36' E 140°07'0 0.0
2018-Apr-23 02:00N 35°36' E 140°07'0 0.0
2018-Apr-23 01:30N 35°36' E 140°07'0 0.0
2018-Apr-23 01:00N 35°36' E 140°07'0 0.0
2018-Apr-23 00:30N 35°36' E 140°07'0 0.0
2018-Apr-23 00:00N 35°36' E 140°07'1 1.6
2018-Apr-22 23:30N 35°35' E 140°06'1 2.5
2018-Apr-22 23:00N 35°36' E 140°05'1 1.8
2018-Apr-22 22:30N 35°36' E 140°05'3 5.7
2018-Apr-22 22:00N 35°34' E 140°02'2 4.6
2018-Apr-22 21:31N 35°33' E 139°60'0 0.2
2018-Apr-22 21:00N 35°33' E 139°60'3 6.3
2018-Apr-22 20:30N 35°34' E 140°03'4 7.3
2018-Apr-22 20:00N 35°36' E 140°07'0 0.0
2018-Apr-22 19:30N 35°36' E 140°07'0 0.0
2018-Apr-22 19:00N 35°36' E 140°07'0 0.0
2018-Apr-22 18:30N 35°36' E 140°07'0 0.0
2018-Apr-22 18:00N 35°36' E 140°07'0 0.0
2018-Apr-22 17:30N 35°36' E 140°07'0 0.0
2018-Apr-22 17:00N 35°36' E 140°07'0 0.0
2018-Apr-22 16:30N 35°36' E 140°07'0 0.0
2018-Apr-22 16:00N 35°36' E 140°07'0 0.0
2018-Apr-22 15:30N 35°36' E 140°07'0 0.0
2018-Apr-22 15:00N 35°36' E 140°07'0 0.0
2018-Apr-22 14:30N 35°36' E 140°07'0 0.0
2018-Apr-22 14:00N 35°36' E 140°07'0 0.0
2018-Apr-22 13:30N 35°36' E 140°07'0 0.0
2018-Apr-22 13:00N 35°36' E 140°07'0 0.0
2018-Apr-22 12:30N 35°36' E 140°07'0 0.0
2018-Apr-22 12:00N 35°36' E 140°07'0 0.0
2018-Apr-22 11:31N 35°36' E 140°07'0 0.0
2018-Apr-22 11:00N 35°36' E 140°07'0 0.0
2018-Apr-22 10:30N 35°36' E 140°07'0 0.0
2018-Apr-22 10:00N 35°36' E 140°07'0 0.0
2018-Apr-22 09:30N 35°36' E 140°07'0 0.0
2018-Apr-22 09:00N 35°36' E 140°07'0 0.0
2018-Apr-22 08:29N 35°36' E 140°07'0 0.0
2018-Apr-22 08:00N 35°36' E 140°07'0 0.0
2018-Apr-22 07:30N 35°36' E 140°07'0 0.0
2018-Apr-22 07:00N 35°36' E 140°07'0 0.0
2018-Apr-22 06:30N 35°36' E 140°07'0 0.0
2018-Apr-22 06:00N 35°36' E 140°07'0 0.0
2018-Apr-22 05:30N 35°36' E 140°07'0 0.0
2018-Apr-22 04:59N 35°36' E 140°07'0 0.0
2018-Apr-22 04:30N 35°36' E 140°07'0 0.0
2018-Apr-22 04:00N 35°36' E 140°07'0 0.0
2018-Apr-22 03:29N 35°36' E 140°07'0 0.0
2018-Apr-22 03:00N 35°36' E 140°07'0 0.0
2018-Apr-22 02:29N 35°36' E 140°07'0 0.0
2018-Apr-22 02:00N 35°36' E 140°07'0 0.0
2018-Apr-22 01:30N 35°36' E 140°07'0 0.0
2018-Apr-22 01:00N 35°36' E 140°07'0 0.0
2018-Apr-22 00:30N 35°36' E 140°07'0 0.0
2018-Apr-22 00:00N 35°36' E 140°07'0 0.0
2018-Apr-21 23:30N 35°36' E 140°07'0 0.0
2018-Apr-21 23:00N 35°36' E 140°07'0 0.0
2018-Apr-21 22:30N 35°36' E 140°07'0 0.0
2018-Apr-21 22:00N 35°36' E 140°07'0 0.0
2018-Apr-21 21:30N 35°36' E 140°07'0 0.0
2018-Apr-21 21:00N 35°36' E 140°07'0 0.0
2018-Apr-21 20:30N 35°36' E 140°07'0 0.0
2018-Apr-21 20:00N 35°36' E 140°07'0 0.0
2018-Apr-21 19:30N 35°36' E 140°07'0 0.0
2018-Apr-21 19:00N 35°36' E 140°07'0 0.0
2018-Apr-21 18:30N 35°36' E 140°07'0 0.0
2018-Apr-21 18:00N 35°36' E 140°07'0 0.0
2018-Apr-21 17:30N 35°36' E 140°07'0 0.0
2018-Apr-21 17:00N 35°36' E 140°07'0 0.0
2018-Apr-21 16:30N 35°36' E 140°07'0 0.0
2018-Apr-21 16:00N 35°36' E 140°07'0 0.0
2018-Apr-21 15:30N 35°36' E 140°07'0 0.0
2018-Apr-21 15:00N 35°36' E 140°07'0 0.0
2018-Apr-21 14:30N 35°36' E 140°07'0 0.0
2018-Apr-21 14:00N 35°36' E 140°07'0 0.0
2018-Apr-21 13:30N 35°36' E 140°07'0 0.0
2018-Apr-21 13:00N 35°36' E 140°07'0 0.0
2018-Apr-21 12:30N 35°36' E 140°07'0 0.0
2018-Apr-21 12:00N 35°36' E 140°07'0 0.0
2018-Apr-21 11:30N 35°36' E 140°07'0 0.0
2018-Apr-21 11:00N 35°36' E 140°07'0 0.0
2018-Apr-21 10:30N 35°36' E 140°07'4 7.2
2018-Apr-21 10:00N 35°34' E 140°03'4 5.0
2018-Apr-21 09:10N 35°30' E 140°02'0 0.0
2018-Apr-21 09:00N 35°30' E 140°02'0 0.1
2018-Apr-21 08:29N 35°30' E 140°02'0 1.0
2018-Apr-21 08:00N 35°30' E 140°01'1 3.0
2018-Apr-21 07:30N 35°31' E 139°60'3 6.0
2018-Apr-21 06:56N 35°31' E 139°56'1 1.7
2018-Apr-21 06:23N 35°31' E 139°57'0 0.1
2018-Apr-21 05:58N 35°31' E 139°57'0 0.0
2018-Apr-21 05:30N 35°31' E 139°57'0 0.1
2018-Apr-21 04:51N 35°31' E 139°57'1 3.0
2018-Apr-21 04:28N 35°32' E 139°58'4 8.4
2018-Apr-21 04:00N 35°32' E 140°03'1 2.5
2018-Apr-21 03:30N 35°33' E 140°03'4 7.4
2018-Apr-21 03:00N 35°36' E 140°07'0 0.0
2018-Apr-21 02:30N 35°36' E 140°07'0 0.0
2018-Apr-21 01:59N 35°36' E 140°07'0 0.0
2018-Apr-21 01:30N 35°36' E 140°07'0 0.0
2018-Apr-21 01:00N 35°36' E 140°07'0 0.0
2018-Apr-21 00:27N 35°36' E 140°07'0 0.0
2018-Apr-21 00:00N 35°36' E 140°07'0 0.0
2018-Apr-20 23:30N 35°36' E 140°07'0 0.0
2018-Apr-20 23:00N 35°36' E 140°07'0 0.0
2018-Apr-20 22:29N 35°36' E 140°07'0 0.0
2018-Apr-20 22:00N 35°36' E 140°07'0 0.0
2018-Apr-20 21:30N 35°36' E 140°07'0 0.0
2018-Apr-20 21:00N 35°36' E 140°07'0 0.0
2018-Apr-20 20:30N 35°36' E 140°07'0 0.0
2018-Apr-20 20:00N 35°36' E 140°07'0 0.0
2018-Apr-20 19:30N 35°36' E 140°07'0 0.0
2018-Apr-20 19:00N 35°36' E 140°07'0 0.0
2018-Apr-20 18:30N 35°36' E 140°07'0 0.0
2018-Apr-20 18:00N 35°36' E 140°07'0 0.0
2018-Apr-20 17:30N 35°36' E 140°07'0 0.0
2018-Apr-20 17:00N 35°36' E 140°07'0 0.0
2018-Apr-20 16:29N 35°36' E 140°07'0 0.0
2018-Apr-20 16:00N 35°36' E 140°07'0 0.0
2018-Apr-20 15:30N 35°36' E 140°07'0 0.0
2018-Apr-20 15:00N 35°36' E 140°07'0 0.0
2018-Apr-20 14:30N 35°36' E 140°07'0 0.0
2018-Apr-20 14:00N 35°36' E 140°07'0 0.0
2018-Apr-20 13:30N 35°36' E 140°07'0 0.0
2018-Apr-20 13:00N 35°36' E 140°07'0 0.0
2018-Apr-20 12:30N 35°36' E 140°07'0 0.0
2018-Apr-20 12:00N 35°36' E 140°07'0 0.0
2018-Apr-20 11:30N 35°36' E 140°07'0 0.0
2018-Apr-20 11:00N 35°36' E 140°07'0 0.0
2018-Apr-20 10:30N 35°36' E 140°07'0 0.0
2018-Apr-20 10:00N 35°36' E 140°07'0 0.0
2018-Apr-20 09:29N 35°36' E 140°07'0 0.0
2018-Apr-20 09:00N 35°36' E 140°07'0 0.0
2018-Apr-20 08:30N 35°36' E 140°07'0 0.0
2018-Apr-20 08:00N 35°36' E 140°07'0 0.0
2018-Apr-20 07:30N 35°36' E 140°07'0 0.0
2018-Apr-20 07:00N 35°36' E 140°07'0 0.0
2018-Apr-20 06:30N 35°36' E 140°07'0 0.0
2018-Apr-20 06:00N 35°36' E 140°07'0 0.0
2018-Apr-20 05:30N 35°36' E 140°07'0 0.0
2018-Apr-20 05:00N 35°36' E 140°07'0 0.1
2018-Apr-20 04:30N 35°36' E 140°07'3 6.3
2018-Apr-20 04:00N 35°33' E 140°05'1 1.7
2018-Apr-20 03:30N 35°32' E 140°06'2 4.7
2018-Apr-20 03:01N 35°33' E 140°03'3 6.6
2018-Apr-20 02:29N 35°31' E 140°00'1 2.6
2018-Apr-20 02:00N 35°30' E 139°59'0 0.1
2018-Apr-20 01:29N 35°30' E 139°59'0 0.0
2018-Apr-20 01:00N 35°30' E 139°59'3 5.0
2018-Apr-20 00:29N 35°31' E 139°56'0 0.1
2018-Apr-20 00:00N 35°31' E 139°56'0 0.0
2018-Apr-19 23:29N 35°31' E 139°56'0 0.1
2018-Apr-19 23:00N 35°31' E 139°56'1 1.1
2018-Apr-19 22:30N 35°30' E 139°56'2 4.1
2018-Apr-19 22:00N 35°29' E 139°54'1 2.3
2018-Apr-19 21:30N 35°30' E 139°55'612.6
2018-Apr-19 20:59N 35°34' E 140°01'510.8
2018-Apr-19 20:30N 35°36' E 140°07'0 0.1
2018-Apr-19 20:00N 35°36' E 140°07'0 0.1
2018-Apr-19 19:30N 35°36' E 140°07'0 0.0
2018-Apr-19 19:00N 35°36' E 140°07'0 0.0
2018-Apr-19 18:30N 35°36' E 140°07'0 0.0
2018-Apr-19 18:00N 35°36' E 140°07'0 0.0
2018-Apr-19 17:30N 35°36' E 140°07'0 0.0
2018-Apr-19 17:00N 35°36' E 140°07'0 0.0
2018-Apr-19 16:30N 35°36' E 140°07'0 0.0
2018-Apr-19 16:00N 35°36' E 140°07'0 0.0
2018-Apr-19 15:30N 35°36' E 140°07'0 0.0
2018-Apr-19 14:59N 35°36' E 140°07'0 0.0
2018-Apr-19 14:30N 35°36' E 140°07'0 0.0
2018-Apr-19 14:00N 35°36' E 140°07'0 0.0
2018-Apr-19 13:30N 35°36' E 140°07'0 0.0
2018-Apr-19 12:59N 35°36' E 140°07'0 0.0
2018-Apr-19 12:30N 35°36' E 140°07'0 0.0
2018-Apr-19 12:00N 35°36' E 140°07'0 0.0
2018-Apr-19 11:30N 35°36' E 140°07'0 0.0
2018-Apr-19 11:00N 35°36' E 140°07'0 0.1
2018-Apr-19 10:30N 35°36' E 140°07'0 0.1
2018-Apr-19 10:00N 35°36' E 140°07'0 0.0
2018-Apr-19 09:30N 35°36' E 140°07'0 0.0
2018-Apr-19 09:00N 35°36' E 140°07'0 0.0
2018-Apr-19 08:30N 35°36' E 140°07'0 0.0
2018-Apr-19 08:00N 35°36' E 140°07'2 4.4
2018-Apr-19 07:30N 35°35' E 140°04'611.0
2018-Apr-19 07:00N 35°31' E 140°00'3 5.8
2018-Apr-19 06:30N 35°28' E 139°58'0 0.0
2018-Apr-19 06:00N 35°28' E 139°58'0 0.0
2018-Apr-19 05:30N 35°28' E 139°58'0 0.2
2018-Apr-19 05:00N 35°28' E 139°58'1 2.2
2018-Apr-19 04:30N 35°29' E 139°57'2 3.9
2018-Apr-19 03:59N 35°29' E 139°55'0 0.9
2018-Apr-19 03:30N 35°29' E 139°54'0 0.0
2018-Apr-19 02:59N 35°29' E 139°54'0 0.0
2018-Apr-19 02:31N 35°29' E 139°54'0 0.0
2018-Apr-19 01:59N 35°29' E 139°54'0 0.0
2018-Apr-19 01:28N 35°29' E 139°54'3 6.4
2018-Apr-19 00:58N 35°32' E 139°56'2 5.3
2018-Apr-19 00:30N 35°34' E 139°58'3 5.4
2018-Apr-19 00:00N 35°34' E 140°01'3 6.9
2018-Apr-18 23:30N 35°36' E 140°05'0 0.2
2018-Apr-18 23:01N 35°36' E 140°05'2 3.4
2018-Apr-18 22:30N 35°36' E 140°07'0 0.0
2018-Apr-18 22:00N 35°36' E 140°07'0 0.0
2018-Apr-18 21:29N 35°36' E 140°07'0 0.0
2018-Apr-18 21:00N 35°36' E 140°07'0 0.0
2018-Apr-18 20:30N 35°36' E 140°07'0 0.0
2018-Apr-18 20:00N 35°36' E 140°07'0 0.0
2018-Apr-18 19:30N 35°36' E 140°07'0 0.0
2018-Apr-18 19:00N 35°36' E 140°07'0 0.0
2018-Apr-18 18:30N 35°36' E 140°07'0 0.0
2018-Apr-18 18:00N 35°36' E 140°07'0 0.0
2018-Apr-18 17:30N 35°36' E 140°07'0 0.0
2018-Apr-18 17:00N 35°36' E 140°07'0 0.0
2018-Apr-18 16:30N 35°36' E 140°07'0 0.0
2018-Apr-18 16:00N 35°36' E 140°07'0 0.0
2018-Apr-18 15:30N 35°36' E 140°07'0 0.0
2018-Apr-18 15:00N 35°36' E 140°07'0 0.0
2018-Apr-18 14:30N 35°36' E 140°07'0 0.0
2018-Apr-18 14:00N 35°36' E 140°07'0 0.0
2018-Apr-18 13:30N 35°36' E 140°07'0 0.0
2018-Apr-18 13:00N 35°36' E 140°07'0 0.0
2018-Apr-18 12:30N 35°36' E 140°07'0 0.0
2018-Apr-18 12:00N 35°36' E 140°07'0 0.0
2018-Apr-18 11:30N 35°36' E 140°07'0 0.0
2018-Apr-18 11:00N 35°36' E 140°07'0 0.0
2018-Apr-18 10:30N 35°36' E 140°07'0 0.0
2018-Apr-18 10:00N 35°36' E 140°07'0 0.0
2018-Apr-18 09:29N 35°36' E 140°07'0 0.0
2018-Apr-18 09:00N 35°36' E 140°07'4 7.3
2018-Apr-18 08:30N 35°34' E 140°03'610.8
2018-Apr-18 07:54N 35°31' E 139°56'0 0.3
2018-Apr-18 07:30N 35°31' E 139°56'0 0.0
2018-Apr-18 07:00N 35°31' E 139°56'0 0.3
2018-Apr-18 06:30N 35°31' E 139°56'1 2.3
2018-Apr-18 06:00N 35°30' E 139°55'2 3.9
2018-Apr-18 05:30N 35°29' E 139°53'1 1.7
2018-Apr-18 05:00N 35°28' E 139°54'0 0.0
2018-Apr-18 04:30N 35°28' E 139°54'0 0.0
2018-Apr-18 04:00N 35°28' E 139°54'0 0.0
2018-Apr-18 03:29N 35°28' E 139°54'0 0.0
2018-Apr-18 03:00N 35°28' E 139°54'0 0.0
2018-Apr-18 02:30N 35°28' E 139°54'0 0.0
2018-Apr-18 02:00N 35°28' E 139°54'5 9.5
2018-Apr-18 01:30N 35°31' E 139°59'4 7.3
2018-Apr-18 01:00N 35°32' E 140°03'1 1.5
2018-Apr-18 00:31N 35°32' E 140°03'2 3.9
2018-Apr-17 23:59N 35°31' E 140°00'511.4
2018-Apr-17 23:31N 35°36' E 140°04'2 3.1
2018-Apr-17 23:01N 35°35' E 140°06'1 1.9
2018-Apr-17 22:31N 35°36' E 140°07'0 0.0
2018-Apr-17 22:00N 35°36' E 140°07'0 0.0
2018-Apr-17 21:31N 35°36' E 140°07'0 0.0
2018-Apr-17 21:01N 35°36' E 140°07'0 0.0
2018-Apr-17 20:30N 35°36' E 140°07'0 0.0
2018-Apr-17 20:00N 35°36' E 140°07'0 0.0
2018-Apr-17 19:30N 35°36' E 140°07'0 0.0
2018-Apr-17 19:01N 35°36' E 140°07'0 0.0
2018-Apr-17 18:30N 35°36' E 140°07'0 0.0
2018-Apr-17 18:00N 35°36' E 140°07'0 0.0
2018-Apr-17 17:30N 35°36' E 140°07'0 0.0
2018-Apr-17 17:00N 35°36' E 140°07'0 0.0
2018-Apr-17 16:30N 35°36' E 140°07'0 0.0
2018-Apr-17 16:00N 35°36' E 140°07'0 0.0
2018-Apr-17 15:30N 35°36' E 140°07'0 0.0
2018-Apr-17 15:01N 35°36' E 140°07'0 0.0
2018-Apr-17 14:31N 35°36' E 140°07'0 0.0
2018-Apr-17 14:00N 35°36' E 140°07'0 0.0
2018-Apr-17 13:30N 35°36' E 140°07'0 0.0
2018-Apr-17 13:01N 35°36' E 140°07'0 0.0
2018-Apr-17 12:30N 35°36' E 140°07'0 0.0
2018-Apr-17 12:01N 35°36' E 140°07'0 0.0
2018-Apr-17 11:30N 35°36' E 140°07'0 0.0
2018-Apr-17 11:01N 35°36' E 140°07'0 0.0
2018-Apr-17 10:30N 35°36' E 140°07'0 0.0
2018-Apr-17 10:00N 35°36' E 140°07'0 0.0
2018-Apr-17 09:31N 35°36' E 140°07'0 0.0
2018-Apr-17 09:01N 35°36' E 140°07'0 0.0
2018-Apr-17 08:29N 35°36' E 140°07'0 0.0
2018-Apr-17 08:00N 35°36' E 140°07'0 0.0
2018-Apr-17 07:31N 35°36' E 140°07'3 5.6
2018-Apr-17 07:00N 35°34' E 140°04'510.3
2018-Apr-17 06:30N 35°30' E 139°60'3 6.0
2018-Apr-17 06:00N 35°28' E 139°58'0 0.2
2018-Apr-17 05:31N 35°28' E 139°58'2 4.5
2018-Apr-17 05:01N 35°30' E 139°56'4 5.0
2018-Apr-17 04:18N 35°33' E 139°58'311.0
2018-Apr-17 04:00N 35°35' E 140°02'4 9.0
2018-Apr-17 03:31N 35°36' E 140°07'0 0.0
2018-Apr-17 03:00N 35°36' E 140°07'0 0.0
2018-Apr-17 02:31N 35°36' E 140°07'0 0.0
2018-Apr-17 01:59N 35°36' E 140°07'0 0.0
2018-Apr-17 01:30N 35°36' E 140°07'0 0.0
2018-Apr-17 01:00N 35°36' E 140°07'0 0.0
2018-Apr-17 00:30N 35°36' E 140°07'0 0.0
2018-Apr-17 00:01N 35°36' E 140°07'0 0.0
2018-Apr-16 23:30N 35°36' E 140°07'0 0.0
2018-Apr-16 23:00N 35°36' E 140°07'2 3.1
2018-Apr-16 22:30N 35°35' E 140°05'4 7.9
2018-Apr-16 22:00N 35°32' E 140°02'1 1.6
2018-Apr-16 21:27N 35°33' E 140°03'4 8.2
2018-Apr-16 21:01N 35°35' E 140°06'1 1.2
2018-Apr-16 20:31N 35°36' E 140°07'0 0.0
2018-Apr-16 20:01N 35°36' E 140°07'0 0.0
2018-Apr-16 19:30N 35°36' E 140°07'0 0.0
2018-Apr-16 19:01N 35°36' E 140°07'0 0.0
2018-Apr-16 18:31N 35°36' E 140°07'0 0.0
2018-Apr-16 18:00N 35°36' E 140°07'0 0.0
2018-Apr-16 17:31N 35°36' E 140°07'0 0.0
2018-Apr-16 17:00N 35°36' E 140°07'0 0.0
2018-Apr-16 16:31N 35°36' E 140°07'0 0.0
2018-Apr-16 16:00N 35°36' E 140°07'0 0.0
2018-Apr-16 15:30N 35°36' E 140°07'0 0.0
2018-Apr-16 15:00N 35°36' E 140°07'0 0.0
2018-Apr-16 14:31N 35°36' E 140°07'0 0.0
2018-Apr-16 14:01N 35°36' E 140°07'0 0.0
2018-Apr-16 13:30N 35°36' E 140°07'0 0.0
2018-Apr-16 13:01N 35°36' E 140°07'0 0.0
2018-Apr-16 12:30N 35°36' E 140°07'0 0.0
2018-Apr-16 12:01N 35°36' E 140°07'0 0.0
2018-Apr-16 11:30N 35°36' E 140°07'0 0.0
2018-Apr-16 11:01N 35°36' E 140°07'0 0.0
2018-Apr-16 10:30N 35°36' E 140°07'0 0.0
2018-Apr-16 10:00N 35°36' E 140°07'0 0.0
2018-Apr-16 09:30N 35°36' E 140°07'0 0.0
2018-Apr-16 09:00N 35°36' E 140°07'0 0.0
2018-Apr-16 08:30N 35°36' E 140°07'0 0.0
2018-Apr-16 08:01N 35°36' E 140°07'0 0.0
2018-Apr-16 07:31N 35°36' E 140°07'0 0.0
2018-Apr-16 07:00N 35°36' E 140°07'0 0.0
2018-Apr-16 06:31N 35°36' E 140°07'2 3.4
2018-Apr-16 06:00N 35°36' E 140°05'0 0.0
2018-Apr-16 05:30N 35°36' E 140°05'1 2.2
2018-Apr-16 05:01N 35°35' E 140°04'5 9.7
2018-Apr-16 04:30N 35°33' E 139°58'2 3.7
2018-Apr-16 03:58N 35°31' E 139°57'510.6
2018-Apr-16 03:30N 35°34' E 140°02'5 9.2
2018-Apr-16 03:00N 35°36' E 140°07'0 0.1
2018-Apr-16 02:30N 35°36' E 140°07'1 1.8
2018-Apr-16 02:00N 35°35' E 140°06'0 0.4
2018-Apr-16 01:30N 35°35' E 140°06'2 3.8
2018-Apr-16 01:00N 35°35' E 140°04'3 6.9
2018-Apr-16 00:30N 35°34' E 140°00'4 7.7
2018-Apr-16 00:00N 35°32' E 139°56'0 0.5
2018-Apr-15 23:29N 35°32' E 139°56'1 1.4
2018-Apr-15 22:59N 35°32' E 139°57'510.3
2018-Apr-15 22:31N 35°35' E 140°02'4 7.8
2018-Apr-15 22:00N 35°36' E 140°07'0 0.0
2018-Apr-15 21:30N 35°36' E 140°07'0 0.0
2018-Apr-15 21:01N 35°36' E 140°07'0 0.0
2018-Apr-15 20:31N 35°36' E 140°07'0 0.0
2018-Apr-15 20:00N 35°36' E 140°07'0 0.0
2018-Apr-15 19:31N 35°36' E 140°07'0 0.0
2018-Apr-15 19:01N 35°36' E 140°07'0 0.0
2018-Apr-15 18:31N 35°36' E 140°07'0 0.0
2018-Apr-15 18:00N 35°36' E 140°07'0 0.0
2018-Apr-15 17:30N 35°36' E 140°07'0 0.0
2018-Apr-15 16:59N 35°36' E 140°07'0 0.0
2018-Apr-15 16:29N 35°36' E 140°07'0 0.0
2018-Apr-15 16:00N 35°36' E 140°07'0 0.0
2018-Apr-15 15:30N 35°36' E 140°07'0 0.0
2018-Apr-15 15:01N 35°36' E 140°07'0 0.0
2018-Apr-15 14:30N 35°36' E 140°07'0 0.0
2018-Apr-15 14:00N 35°36' E 140°07'0 0.0
2018-Apr-15 13:31N 35°36' E 140°07'0 0.0
2018-Apr-15 13:00N 35°36' E 140°07'0 0.0
2018-Apr-15 12:31N 35°36' E 140°07'0 0.0
2018-Apr-15 12:01N 35°36' E 140°07'0 0.0
2018-Apr-15 11:30N 35°36' E 140°07'0 0.0
2018-Apr-15 11:00N 35°36' E 140°07'0 0.0
2018-Apr-15 10:30N 35°36' E 140°07'1 1.1
2018-Apr-15 10:01N 35°35' E 140°06'4 8.4
2018-Apr-15 09:30N 35°34' E 140°01'3 5.9
2018-Apr-15 09:00N 35°36' E 140°05'2 3.2
2018-Apr-15 08:30N 35°35' E 140°06'0 0.1
2018-Apr-15 08:00N 35°35' E 140°06'1 2.0
2018-Apr-15 07:31N 35°36' E 140°07'0 0.0
2018-Apr-15 07:00N 35°36' E 140°07'0 0.0
2018-Apr-15 06:31N 35°36' E 140°07'0 0.0
2018-Apr-15 06:01N 35°36' E 140°07'0 0.0
2018-Apr-15 05:31N 35°36' E 140°07'0 0.0
2018-Apr-15 05:00N 35°36' E 140°07'0 0.0
2018-Apr-15 04:31N 35°36' E 140°07'0 0.0
2018-Apr-15 04:00N 35°36' E 140°07'0 0.0
2018-Apr-15 03:31N 35°36' E 140°07'0 0.0
2018-Apr-15 03:01N 35°36' E 140°07'0 0.0
2018-Apr-15 02:30N 35°36' E 140°07'0 0.0
2018-Apr-15 02:01N 35°36' E 140°07'0 0.0
2018-Apr-15 01:31N 35°36' E 140°07'0 0.0
2018-Apr-15 01:01N 35°36' E 140°07'0 0.0
2018-Apr-15 00:31N 35°36' E 140°07'0 0.0
2018-Apr-15 00:00N 35°36' E 140°07'0 0.0
2018-Apr-14 23:31N 35°36' E 140°07'0 0.0
2018-Apr-14 23:01N 35°36' E 140°07'0 0.0
2018-Apr-14 22:31N 35°36' E 140°07'0 0.0
2018-Apr-14 22:00N 35°36' E 140°07'0 0.0
2018-Apr-14 21:31N 35°36' E 140°07'0 0.0
2018-Apr-14 21:01N 35°36' E 140°07'0 0.0
2018-Apr-14 20:30N 35°36' E 140°07'0 0.0
2018-Apr-14 20:00N 35°36' E 140°07'0 0.0
2018-Apr-14 19:30N 35°36' E 140°07'0 0.0
2018-Apr-14 19:00N 35°36' E 140°07'0 0.0
2018-Apr-14 18:30N 35°36' E 140°07'0 0.0
2018-Apr-14 18:01N 35°36' E 140°07'0 0.0
2018-Apr-14 17:30N 35°36' E 140°07'0 0.0
2018-Apr-14 17:01N 35°36' E 140°07'0 0.0
2018-Apr-14 16:31N 35°36' E 140°07'0 0.0
2018-Apr-14 16:01N 35°36' E 140°07'0 0.0
2018-Apr-14 15:31N 35°36' E 140°07'0 0.0
2018-Apr-14 15:00N 35°36' E 140°07'0 0.0
2018-Apr-14 14:31N 35°36' E 140°07'0 0.0
2018-Apr-14 14:01N 35°36' E 140°07'0 0.0
2018-Apr-14 13:31N 35°36' E 140°07'0 0.0
2018-Apr-14 13:01N 35°36' E 140°07'0 0.0
2018-Apr-14 12:31N 35°36' E 140°07'0 0.0
2018-Apr-14 12:00N 35°36' E 140°07'0 0.0
2018-Apr-14 11:30N 35°36' E 140°07'0 0.0
2018-Apr-14 11:01N 35°36' E 140°07'0 0.0
2018-Apr-14 10:31N 35°36' E 140°07'0 0.0
2018-Apr-14 10:00N 35°36' E 140°07'0 0.0
2018-Apr-14 09:30N 35°36' E 140°07'0 0.0
2018-Apr-14 09:00N 35°36' E 140°07'0 0.0
2018-Apr-14 08:31N 35°36' E 140°07'0 0.0
2018-Apr-14 08:00N 35°36' E 140°07'0 0.0
2018-Apr-14 07:30N 35°36' E 140°07'0 0.0
2018-Apr-14 07:00N 35°36' E 140°07'1 1.8
2018-Apr-14 06:30N 35°35' E 140°06'0 0.5
2018-Apr-14 06:00N 35°35' E 140°06'2 4.0
2018-Apr-14 05:30N 35°35' E 140°04'4 7.6
2018-Apr-14 05:00N 35°33' E 139°60'3 6.3
2018-Apr-14 04:30N 35°32' E 139°56'1 2.9
2018-Apr-14 04:00N 35°33' E 139°58'4 9.0
2018-Apr-14 03:30N 35°35' E 140°03'3 6.8
2018-Apr-14 03:00N 35°36' E 140°07'0 0.0
2018-Apr-14 02:30N 35°36' E 140°07'0 0.0
2018-Apr-14 02:00N 35°36' E 140°07'0 0.0
2018-Apr-14 01:29N 35°36' E 140°07'4 8.7
2018-Apr-14 01:01N 35°34' E 140°02'6 9.2
2018-Apr-14 00:20N 35°31' E 139°56'0 1.1
2018-Apr-14 00:00N 35°31' E 139°56'0 0.2
2018-Apr-13 23:31N 35°31' E 139°56'5 9.8
2018-Apr-13 23:00N 35°34' E 140°01'510.5
2018-Apr-13 22:31N 35°36' E 140°07'0 0.1
2018-Apr-13 22:01N 35°36' E 140°07'0 0.0
2018-Apr-13 21:30N 35°36' E 140°07'0 0.0
2018-Apr-13 21:00N 35°36' E 140°07'0 0.0
2018-Apr-13 20:30N 35°36' E 140°07'0 0.0
2018-Apr-13 20:01N 35°36' E 140°07'0 0.0
2018-Apr-13 19:00N 35°36' E 140°07'0 0.0
2018-Apr-13 18:31N 35°36' E 140°07'0 0.0
2018-Apr-13 18:00N 35°36' E 140°07'0 0.0
2018-Apr-13 17:30N 35°36' E 140°07'0 0.0
2018-Apr-13 16:30N 35°36' E 140°07'0 0.0
2018-Apr-13 16:00N 35°36' E 140°07'0 0.0
2018-Apr-13 15:30N 35°36' E 140°07'0 0.0
2018-Apr-13 15:01N 35°36' E 140°07'0 0.0
2018-Apr-13 14:30N 35°36' E 140°07'0 0.0
2018-Apr-13 14:01N 35°36' E 140°07'0 0.0
2018-Apr-13 13:31N 35°36' E 140°07'0 0.0
2018-Apr-13 13:01N 35°36' E 140°07'0 0.0
2018-Apr-13 12:30N 35°36' E 140°07'0 0.0
2018-Apr-13 12:00N 35°36' E 140°07'  
Track history (hours):
 
Tides and Currents Weather Stations Pressure Air Temp Water Temp Dewpoint Dewpoint Depression Visibility Wind Speed Wind Dir Waves Ship Positions

Kitanomaru

Last reported at 2018-Apr-23 11:30 UTC. Time now 2018-Apr-23 11:45 UTC.
Position N 35°36' E 140°07'.

Length 39 m; draft 4 m.

Type: Tug. MMSI: 431000773.

Date/timePositionNaut miles runAvg speedWind from/ knotsBaromVisibWave heightAir tempDewpointWater temp
2018-Apr-23 11:30N 35°36' E 140°07'0 0.0
2018-Apr-23 11:00N 35°36' E 140°07'0 0.0
2018-Apr-23 10:30N 35°36' E 140°07'0 0.0
2018-Apr-23 10:00N 35°36' E 140°07'0 0.0
2018-Apr-23 09:30N 35°36' E 140°07'0 0.0
2018-Apr-23 09:00N 35°36' E 140°07'0 0.0
2018-Apr-23 08:30N 35°36' E 140°07'0 0.0
2018-Apr-23 08:00N 35°36' E 140°07'0 0.0
2018-Apr-23 07:30N 35°36' E 140°07'0 0.0
2018-Apr-23 07:00N 35°36' E 140°07'0 0.0
2018-Apr-23 06:30N 35°36' E 140°07'0 0.0
2018-Apr-23 06:00N 35°36' E 140°07'0 0.0
2018-Apr-23 05:30N 35°36' E 140°07'0 0.0
2018-Apr-23 05:00N 35°36' E 140°07'0 0.0
2018-Apr-23 04:30N 35°36' E 140°07'0 0.0
2018-Apr-23 04:00N 35°36' E 140°07'0 0.0
2018-Apr-23 03:31N 35°36' E 140°07'0 0.0
2018-Apr-23 02:58N 35°36' E 140°07'0 0.0
2018-Apr-23 02:29N 35°36' E 140°07'0 0.0
2018-Apr-23 02:00N 35°36' E 140°07'0 0.0
2018-Apr-23 01:30N 35°36' E 140°07'0 0.0
2018-Apr-23 01:00N 35°36' E 140°07'0 0.0
2018-Apr-23 00:30N 35°36' E 140°07'0 0.0
2018-Apr-23 00:00N 35°36' E 140°07'1 1.6
2018-Apr-22 23:30N 35°35' E 140°06'1 2.5
2018-Apr-22 23:00N 35°36' E 140°05'1 1.8
2018-Apr-22 22:30N 35°36' E 140°05'3 5.7
2018-Apr-22 22:00N 35°34' E 140°02'2 4.6
2018-Apr-22 21:31N 35°33' E 139°60'0 0.2
2018-Apr-22 21:00N 35°33' E 139°60'3 6.3
2018-Apr-22 20:30N 35°34' E 140°03'4 7.3
2018-Apr-22 20:00N 35°36' E 140°07'0 0.0
2018-Apr-22 19:30N 35°36' E 140°07'0 0.0
2018-Apr-22 19:00N 35°36' E 140°07'0 0.0
2018-Apr-22 18:30N 35°36' E 140°07'0 0.0
2018-Apr-22 18:00N 35°36' E 140°07'0 0.0
2018-Apr-22 17:30N 35°36' E 140°07'0 0.0
2018-Apr-22 17:00N 35°36' E 140°07'0 0.0
2018-Apr-22 16:30N 35°36' E 140°07'0 0.0
2018-Apr-22 16:00N 35°36' E 140°07'0 0.0
2018-Apr-22 15:30N 35°36' E 140°07'0 0.0
2018-Apr-22 15:00N 35°36' E 140°07'0 0.0
2018-Apr-22 14:30N 35°36' E 140°07'0 0.0
2018-Apr-22 14:00N 35°36' E 140°07'0 0.0
2018-Apr-22 13:30N 35°36' E 140°07'0 0.0
2018-Apr-22 13:00N 35°36' E 140°07'0 0.0
2018-Apr-22 12:30N 35°36' E 140°07'0 0.0
2018-Apr-22 12:00N 35°36' E 140°07'0 0.0
2018-Apr-22 11:31N 35°36' E 140°07'0 0.0
2018-Apr-22 11:00N 35°36' E 140°07'0 0.0
2018-Apr-22 10:30N 35°36' E 140°07'0 0.0
2018-Apr-22 10:00N 35°36' E 140°07'0 0.0
2018-Apr-22 09:30N 35°36' E 140°07'0 0.0
2018-Apr-22 09:00N 35°36' E 140°07'0 0.0
2018-Apr-22 08:29N 35°36' E 140°07'0 0.0
2018-Apr-22 08:00N 35°36' E 140°07'0 0.0
2018-Apr-22 07:30N 35°36' E 140°07'0 0.0
2018-Apr-22 07:00N 35°36' E 140°07'0 0.0
2018-Apr-22 06:30N 35°36' E 140°07'0 0.0
2018-Apr-22 06:00N 35°36' E 140°07'0 0.0
2018-Apr-22 05:30N 35°36' E 140°07'0 0.0
2018-Apr-22 04:59N 35°36' E 140°07'0 0.0
2018-Apr-22 04:30N 35°36' E 140°07'0 0.0
2018-Apr-22 04:00N 35°36' E 140°07'0 0.0
2018-Apr-22 03:29N 35°36' E 140°07'0 0.0
2018-Apr-22 03:00N 35°36' E 140°07'0 0.0
2018-Apr-22 02:29N 35°36' E 140°07'0 0.0
2018-Apr-22 02:00N 35°36' E 140°07'0 0.0
2018-Apr-22 01:30N 35°36' E 140°07'0 0.0
2018-Apr-22 01:00N 35°36' E 140°07'0 0.0
2018-Apr-22 00:30N 35°36' E 140°07'0 0.0
2018-Apr-22 00:00N 35°36' E 140°07'0 0.0
2018-Apr-21 23:30N 35°36' E 140°07'0 0.0
2018-Apr-21 23:00N 35°36' E 140°07'0 0.0
2018-Apr-21 22:30N 35°36' E 140°07'0 0.0
2018-Apr-21 22:00N 35°36' E 140°07'0 0.0
2018-Apr-21 21:30N 35°36' E 140°07'0 0.0
2018-Apr-21 21:00N 35°36' E 140°07'0 0.0
2018-Apr-21 20:30N 35°36' E 140°07'0 0.0
2018-Apr-21 20:00N 35°36' E 140°07'0 0.0
2018-Apr-21 19:30N 35°36' E 140°07'0 0.0
2018-Apr-21 19:00N 35°36' E 140°07'0 0.0
2018-Apr-21 18:30N 35°36' E 140°07'0 0.0
2018-Apr-21 18:00N 35°36' E 140°07'0 0.0
2018-Apr-21 17:30N 35°36' E 140°07'0 0.0
2018-Apr-21 17:00N 35°36' E 140°07'0 0.0
2018-Apr-21 16:30N 35°36' E 140°07'0 0.0
2018-Apr-21 16:00N 35°36' E 140°07'0 0.0
2018-Apr-21 15:30N 35°36' E 140°07'0 0.0
2018-Apr-21 15:00N 35°36' E 140°07'0 0.0
2018-Apr-21 14:30N 35°36' E 140°07'0 0.0
2018-Apr-21 14:00N 35°36' E 140°07'0 0.0
2018-Apr-21 13:30N 35°36' E 140°07'0 0.0
2018-Apr-21 13:00N 35°36' E 140°07'0 0.0
2018-Apr-21 12:30N 35°36' E 140°07'0 0.0
2018-Apr-21 12:00N 35°36' E 140°07'0 0.0
2018-Apr-21 11:30N 35°36' E 140°07'0 0.0
2018-Apr-21 11:00N 35°36' E 140°07'0 0.0
2018-Apr-21 10:30N 35°36' E 140°07'4 7.2
2018-Apr-21 10:00N 35°34' E 140°03'4 5.0
2018-Apr-21 09:10N 35°30' E 140°02'0 0.0
2018-Apr-21 09:00N 35°30' E 140°02'0 0.1
2018-Apr-21 08:29N 35°30' E 140°02'0 1.0
2018-Apr-21 08:00N 35°30' E 140°01'1 3.0
2018-Apr-21 07:30N 35°31' E 139°60'3 6.0
2018-Apr-21 06:56N 35°31' E 139°56'1 1.7
2018-Apr-21 06:23N 35°31' E 139°57'0 0.1
2018-Apr-21 05:58N 35°31' E 139°57'0 0.0
2018-Apr-21 05:30N 35°31' E 139°57'0 0.1
2018-Apr-21 04:51N 35°31' E 139°57'1 3.0
2018-Apr-21 04:28N 35°32' E 139°58'4 8.4
2018-Apr-21 04:00N 35°32' E 140°03'1 2.5
2018-Apr-21 03:30N 35°33' E 140°03'4 7.4
2018-Apr-21 03:00N 35°36' E 140°07'0 0.0
2018-Apr-21 02:30N 35°36' E 140°07'0 0.0
2018-Apr-21 01:59N 35°36' E 140°07'0 0.0
2018-Apr-21 01:30N 35°36' E 140°07'0 0.0
2018-Apr-21 01:00N 35°36' E 140°07'0 0.0
2018-Apr-21 00:27N 35°36' E 140°07'0 0.0
2018-Apr-21 00:00N 35°36' E 140°07'0 0.0
2018-Apr-20 23:30N 35°36' E 140°07'0 0.0
2018-Apr-20 23:00N 35°36' E 140°07'0 0.0
2018-Apr-20 22:29N 35°36' E 140°07'0 0.0
2018-Apr-20 22:00N 35°36' E 140°07'0 0.0
2018-Apr-20 21:30N 35°36' E 140°07'0 0.0
2018-Apr-20 21:00N 35°36' E 140°07'0 0.0
2018-Apr-20 20:30N 35°36' E 140°07'0 0.0
2018-Apr-20 20:00N 35°36' E 140°07'0 0.0
2018-Apr-20 19:30N 35°36' E 140°07'0 0.0
2018-Apr-20 19:00N 35°36' E 140°07'0 0.0
2018-Apr-20 18:30N 35°36' E 140°07'0 0.0
2018-Apr-20 18:00N 35°36' E 140°07'0 0.0
2018-Apr-20 17:30N 35°36' E 140°07'0 0.0
2018-Apr-20 17:00N 35°36' E 140°07'0 0.0
2018-Apr-20 16:29N 35°36' E 140°07'0 0.0
2018-Apr-20 16:00N 35°36' E 140°07'0 0.0
2018-Apr-20 15:30N 35°36' E 140°07'0 0.0
2018-Apr-20 15:00N 35°36' E 140°07'0 0.0
2018-Apr-20 14:30N 35°36' E 140°07'0 0.0
2018-Apr-20 14:00N 35°36' E 140°07'0 0.0
2018-Apr-20 13:30N 35°36' E 140°07'0 0.0
2018-Apr-20 13:00N 35°36' E 140°07'0 0.0
2018-Apr-20 12:30N 35°36' E 140°07'0 0.0
2018-Apr-20 12:00N 35°36' E 140°07'0 0.0
2018-Apr-20 11:30N 35°36' E 140°07'0 0.0
2018-Apr-20 11:00N 35°36' E 140°07'0 0.0
2018-Apr-20 10:30N 35°36' E 140°07'0 0.0
2018-Apr-20 10:00N 35°36' E 140°07'0 0.0
2018-Apr-20 09:29N 35°36' E 140°07'0 0.0
2018-Apr-20 09:00N 35°36' E 140°07'0 0.0
2018-Apr-20 08:30N 35°36' E 140°07'0 0.0
2018-Apr-20 08:00N 35°36' E 140°07'0 0.0
2018-Apr-20 07:30N 35°36' E 140°07'0 0.0
2018-Apr-20 07:00N 35°36' E 140°07'0 0.0
2018-Apr-20 06:30N 35°36' E 140°07'0 0.0
2018-Apr-20 06:00N 35°36' E 140°07'0 0.0
2018-Apr-20 05:30N 35°36' E 140°07'0 0.0
2018-Apr-20 05:00N 35°36' E 140°07'0 0.1
2018-Apr-20 04:30N 35°36' E 140°07'3 6.3
2018-Apr-20 04:00N 35°33' E 140°05'1 1.7
2018-Apr-20 03:30N 35°32' E 140°06'2 4.7
2018-Apr-20 03:01N 35°33' E 140°03'3 6.6
2018-Apr-20 02:29N 35°31' E 140°00'1 2.6
2018-Apr-20 02:00N 35°30' E 139°59'0 0.1
2018-Apr-20 01:29N 35°30' E 139°59'0 0.0
2018-Apr-20 01:00N 35°30' E 139°59'3 5.0
2018-Apr-20 00:29N 35°31' E 139°56'0 0.1
2018-Apr-20 00:00N 35°31' E 139°56'0 0.0
2018-Apr-19 23:29N 35°31' E 139°56'0 0.1
2018-Apr-19 23:00N 35°31' E 139°56'1 1.1
2018-Apr-19 22:30N 35°30' E 139°56'2 4.1
2018-Apr-19 22:00N 35°29' E 139°54'1 2.3
2018-Apr-19 21:30N 35°30' E 139°55'612.6
2018-Apr-19 20:59N 35°34' E 140°01'510.8
2018-Apr-19 20:30N 35°36' E 140°07'0 0.1
2018-Apr-19 20:00N 35°36' E 140°07'0 0.1
2018-Apr-19 19:30N 35°36' E 140°07'0 0.0
2018-Apr-19 19:00N 35°36' E 140°07'0 0.0
2018-Apr-19 18:30N 35°36' E 140°07'0 0.0
2018-Apr-19 18:00N 35°36' E 140°07'0 0.0
2018-Apr-19 17:30N 35°36' E 140°07'0 0.0
2018-Apr-19 17:00N 35°36' E 140°07'0 0.0
2018-Apr-19 16:30N 35°36' E 140°07'0 0.0
2018-Apr-19 16:00N 35°36' E 140°07'0 0.0
2018-Apr-19 15:30N 35°36' E 140°07'0 0.0
2018-Apr-19 14:59N 35°36' E 140°07'0 0.0
2018-Apr-19 14:30N 35°36' E 140°07'0 0.0
2018-Apr-19 14:00N 35°36' E 140°07'0 0.0
2018-Apr-19 13:30N 35°36' E 140°07'0 0.0
2018-Apr-19 12:59N 35°36' E 140°07'0 0.0
2018-Apr-19 12:30N 35°36' E 140°07'0 0.0
2018-Apr-19 12:00N 35°36' E 140°07'0 0.0
2018-Apr-19 11:30N 35°36' E 140°07'0 0.0
2018-Apr-19 11:00N 35°36' E 140°07'0 0.1
2018-Apr-19 10:30N 35°36' E 140°07'0 0.1
2018-Apr-19 10:00N 35°36' E 140°07'0 0.0
2018-Apr-19 09:30N 35°36' E 140°07'0 0.0
2018-Apr-19 09:00N 35°36' E 140°07'0 0.0
2018-Apr-19 08:30N 35°36' E 140°07'0 0.0
2018-Apr-19 08:00N 35°36' E 140°07'2 4.4
2018-Apr-19 07:30N 35°35' E 140°04'611.0
2018-Apr-19 07:00N 35°31' E 140°00'3 5.8
2018-Apr-19 06:30N 35°28' E 139°58'0 0.0
2018-Apr-19 06:00N 35°28' E 139°58'0 0.0
2018-Apr-19 05:30N 35°28' E 139°58'0 0.2
2018-Apr-19 05:00N 35°28' E 139°58'1 2.2
2018-Apr-19 04:30N 35°29' E 139°57'2 3.9
2018-Apr-19 03:59N 35°29' E 139°55'0 0.9
2018-Apr-19 03:30N 35°29' E 139°54'0 0.0
2018-Apr-19 02:59N 35°29' E 139°54'0 0.0
2018-Apr-19 02:31N 35°29' E 139°54'0 0.0
2018-Apr-19 01:59N 35°29' E 139°54'0 0.0
2018-Apr-19 01:28N 35°29' E 139°54'3 6.4
2018-Apr-19 00:58N 35°32' E 139°56'2 5.3
2018-Apr-19 00:30N 35°34' E 139°58'3 5.4
2018-Apr-19 00:00N 35°34' E 140°01'3 6.9
2018-Apr-18 23:30N 35°36' E 140°05'0 0.2
2018-Apr-18 23:01N 35°36' E 140°05'2 3.4
2018-Apr-18 22:30N 35°36' E 140°07'0 0.0
2018-Apr-18 22:00N 35°36' E 140°07'0 0.0
2018-Apr-18 21:29N 35°36' E 140°07'0 0.0
2018-Apr-18 21:00N 35°36' E 140°07'0 0.0
2018-Apr-18 20:30N 35°36' E 140°07'0 0.0
2018-Apr-18 20:00N 35°36' E 140°07'0 0.0
2018-Apr-18 19:30N 35°36' E 140°07'0 0.0
2018-Apr-18 19:00N 35°36' E 140°07'0 0.0
2018-Apr-18 18:30N 35°36' E 140°07'0 0.0
2018-Apr-18 18:00N 35°36' E 140°07'0 0.0
2018-Apr-18 17:30N 35°36' E 140°07'0 0.0
2018-Apr-18 17:00N 35°36' E 140°07'0 0.0
2018-Apr-18 16:30N 35°36' E 140°07'0 0.0
2018-Apr-18 16:00N 35°36' E 140°07'0 0.0
2018-Apr-18 15:30N 35°36' E 140°07'0 0.0
2018-Apr-18 15:00N 35°36' E 140°07'0 0.0
2018-Apr-18 14:30N 35°36' E 140°07'0 0.0
2018-Apr-18 14:00N 35°36' E 140°07'0 0.0
2018-Apr-18 13:30N 35°36' E 140°07'0 0.0
2018-Apr-18 13:00N 35°36' E 140°07'0 0.0
2018-Apr-18 12:30N 35°36' E 140°07'0 0.0
2018-Apr-18 12:00N 35°36' E 140°07'0 0.0
2018-Apr-18 11:30N 35°36' E 140°07'0 0.0
2018-Apr-18 11:00N 35°36' E 140°07'0 0.0
2018-Apr-18 10:30N 35°36' E 140°07'0 0.0
2018-Apr-18 10:00N 35°36' E 140°07'0 0.0
2018-Apr-18 09:29N 35°36' E 140°07'0 0.0
2018-Apr-18 09:00N 35°36' E 140°07'4 7.3
2018-Apr-18 08:30N 35°34' E 140°03'610.8
2018-Apr-18 07:54N 35°31' E 139°56'0 0.3
2018-Apr-18 07:30N 35°31' E 139°56'0 0.0
2018-Apr-18 07:00N 35°31' E 139°56'0 0.3
2018-Apr-18 06:30N 35°31' E 139°56'1 2.3
2018-Apr-18 06:00N 35°30' E 139°55'2 3.9
2018-Apr-18 05:30N 35°29' E 139°53'1 1.7
2018-Apr-18 05:00N 35°28' E 139°54'0 0.0
2018-Apr-18 04:30N 35°28' E 139°54'0 0.0
2018-Apr-18 04:00N 35°28' E 139°54'0 0.0
2018-Apr-18 03:29N 35°28' E 139°54'0 0.0
2018-Apr-18 03:00N 35°28' E 139°54'0 0.0
2018-Apr-18 02:30N 35°28' E 139°54'0 0.0
2018-Apr-18 02:00N 35°28' E 139°54'5 9.5
2018-Apr-18 01:30N 35°31' E 139°59'4 7.3
2018-Apr-18 01:00N 35°32' E 140°03'1 1.5
2018-Apr-18 00:31N 35°32' E 140°03'2 3.9
2018-Apr-17 23:59N 35°31' E 140°00'511.4
2018-Apr-17 23:31N 35°36' E 140°04'2 3.1
2018-Apr-17 23:01N 35°35' E 140°06'1 1.9
2018-Apr-17 22:31N 35°36' E 140°07'0 0.0
2018-Apr-17 22:00N 35°36' E 140°07'0 0.0
2018-Apr-17 21:31N 35°36' E 140°07'0 0.0
2018-Apr-17 21:01N 35°36' E 140°07'0 0.0
2018-Apr-17 20:30N 35°36' E 140°07'0 0.0
2018-Apr-17 20:00N 35°36' E 140°07'0 0.0
2018-Apr-17 19:30N 35°36' E 140°07'0 0.0
2018-Apr-17 19:01N 35°36' E 140°07'0 0.0
2018-Apr-17 18:30N 35°36' E 140°07'0 0.0
2018-Apr-17 18:00N 35°36' E 140°07'0 0.0
2018-Apr-17 17:30N 35°36' E 140°07'0 0.0
2018-Apr-17 17:00N 35°36' E 140°07'0 0.0
2018-Apr-17 16:30N 35°36' E 140°07'0 0.0
2018-Apr-17 16:00N 35°36' E 140°07'0 0.0
2018-Apr-17 15:30N 35°36' E 140°07'0 0.0
2018-Apr-17 15:01N 35°36' E 140°07'0 0.0
2018-Apr-17 14:31N 35°36' E 140°07'0 0.0
2018-Apr-17 14:00N 35°36' E 140°07'0 0.0
2018-Apr-17 13:30N 35°36' E 140°07'0 0.0
2018-Apr-17 13:01N 35°36' E 140°07'0 0.0
2018-Apr-17 12:30N 35°36' E 140°07'0 0.0
2018-Apr-17 12:01N 35°36' E 140°07'0 0.0
2018-Apr-17 11:30N 35°36' E 140°07'0 0.0
2018-Apr-17 11:01N 35°36' E 140°07'0 0.0
2018-Apr-17 10:30N 35°36' E 140°07'0 0.0
2018-Apr-17 10:00N 35°36' E 140°07'0 0.0
2018-Apr-17 09:31N 35°36' E 140°07'0 0.0
2018-Apr-17 09:01N 35°36' E 140°07'0 0.0
2018-Apr-17 08:29N 35°36' E 140°07'0 0.0
2018-Apr-17 08:00N 35°36' E 140°07'0 0.0
2018-Apr-17 07:31N 35°36' E 140°07'3 5.6
2018-Apr-17 07:00N 35°34' E 140°04'510.3
2018-Apr-17 06:30N 35°30' E 139°60'3 6.0
2018-Apr-17 06:00N 35°28' E 139°58'0 0.2
2018-Apr-17 05:31N 35°28' E 139°58'2 4.5
2018-Apr-17 05:01N 35°30' E 139°56'4 5.0
2018-Apr-17 04:18N 35°33' E 139°58'311.0
2018-Apr-17 04:00N 35°35' E 140°02'4 9.0
2018-Apr-17 03:31N 35°36' E 140°07'0 0.0
2018-Apr-17 03:00N 35°36' E 140°07'0 0.0
2018-Apr-17 02:31N 35°36' E 140°07'0 0.0
2018-Apr-17 01:59N 35°36' E 140°07'0 0.0
2018-Apr-17 01:30N 35°36' E 140°07'0 0.0
2018-Apr-17 01:00N 35°36' E 140°07'0 0.0
2018-Apr-17 00:30N 35°36' E 140°07'0 0.0
2018-Apr-17 00:01N 35°36' E 140°07'0 0.0
2018-Apr-16 23:30N 35°36' E 140°07'0 0.0
2018-Apr-16 23:00N 35°36' E 140°07'2 3.1
2018-Apr-16 22:30N 35°35' E 140°05'4 7.9
2018-Apr-16 22:00N 35°32' E 140°02'1 1.6
2018-Apr-16 21:27N 35°33' E 140°03'4 8.2
2018-Apr-16 21:01N 35°35' E 140°06'1 1.2
2018-Apr-16 20:31N 35°36' E 140°07'0 0.0
2018-Apr-16 20:01N 35°36' E 140°07'0 0.0
2018-Apr-16 19:30N 35°36' E 140°07'0 0.0
2018-Apr-16 19:01N 35°36' E 140°07'0 0.0
2018-Apr-16 18:31N 35°36' E 140°07'0 0.0
2018-Apr-16 18:00N 35°36' E 140°07'0 0.0
2018-Apr-16 17:31N 35°36' E 140°07'0 0.0
2018-Apr-16 17:00N 35°36' E 140°07'0 0.0
2018-Apr-16 16:31N 35°36' E 140°07'0 0.0
2018-Apr-16 16:00N 35°36' E 140°07'0 0.0
2018-Apr-16 15:30N 35°36' E 140°07'0 0.0
2018-Apr-16 15:00N 35°36' E 140°07'0 0.0
2018-Apr-16 14:31N 35°36' E 140°07'0 0.0
2018-Apr-16 14:01N 35°36' E 140°07'0 0.0
2018-Apr-16 13:30N 35°36' E 140°07'0 0.0
2018-Apr-16 13:01N 35°36' E 140°07'0 0.0
2018-Apr-16 12:30N 35°36' E 140°07'0 0.0
2018-Apr-16 12:01N 35°36' E 140°07'0 0.0
2018-Apr-16 11:30N 35°36' E 140°07'0 0.0
2018-Apr-16 11:01N 35°36' E 140°07'0 0.0
2018-Apr-16 10:30N 35°36' E 140°07'0 0.0
2018-Apr-16 10:00N 35°36' E 140°07'0 0.0
2018-Apr-16 09:30N 35°36' E 140°07'0 0.0
2018-Apr-16 09:00N 35°36' E 140°07'0 0.0
2018-Apr-16 08:30N 35°36' E 140°07'0 0.0
2018-Apr-16 08:01N 35°36' E 140°07'0 0.0
2018-Apr-16 07:31N 35°36' E 140°07'0 0.0
2018-Apr-16 07:00N 35°36' E 140°07'0 0.0
2018-Apr-16 06:31N 35°36' E 140°07'2 3.4
2018-Apr-16 06:00N 35°36' E 140°05'0 0.0
2018-Apr-16 05:30N 35°36' E 140°05'1 2.2
2018-Apr-16 05:01N 35°35' E 140°04'5 9.7
2018-Apr-16 04:30N 35°33' E 139°58'2 3.7
2018-Apr-16 03:58N 35°31' E 139°57'510.6
2018-Apr-16 03:30N 35°34' E 140°02'5 9.2
2018-Apr-16 03:00N 35°36' E 140°07'0 0.1
2018-Apr-16 02:30N 35°36' E 140°07'1 1.8
2018-Apr-16 02:00N 35°35' E 140°06'0 0.4
2018-Apr-16 01:30N 35°35' E 140°06'2 3.8
2018-Apr-16 01:00N 35°35' E 140°04'3 6.9
2018-Apr-16 00:30N 35°34' E 140°00'4 7.7
2018-Apr-16 00:00N 35°32' E 139°56'0 0.5
2018-Apr-15 23:29N 35°32' E 139°56'1 1.4
2018-Apr-15 22:59N 35°32' E 139°57'510.3
2018-Apr-15 22:31N 35°35' E 140°02'4 7.8
2018-Apr-15 22:00N 35°36' E 140°07'0 0.0
2018-Apr-15 21:30N 35°36' E 140°07'0 0.0
2018-Apr-15 21:01N 35°36' E 140°07'0 0.0
2018-Apr-15 20:31N 35°36' E 140°07'0 0.0
2018-Apr-15 20:00N 35°36' E 140°07'0 0.0
2018-Apr-15 19:31N 35°36' E 140°07'0 0.0
2018-Apr-15 19:01N 35°36' E 140°07'0 0.0
2018-Apr-15 18:31N 35°36' E 140°07'0 0.0
2018-Apr-15 18:00N 35°36' E 140°07'0 0.0
2018-Apr-15 17:30N 35°36' E 140°07'0 0.0
2018-Apr-15 16:59N 35°36' E 140°07'0 0.0
2018-Apr-15 16:29N 35°36' E 140°07'0 0.0
2018-Apr-15 16:00N 35°36' E 140°07'0 0.0
2018-Apr-15 15:30N 35°36' E 140°07'0 0.0
2018-Apr-15 15:01N 35°36' E 140°07'0 0.0
2018-Apr-15 14:30N 35°36' E 140°07'0 0.0
2018-Apr-15 14:00N 35°36' E 140°07'0 0.0
2018-Apr-15 13:31N 35°36' E 140°07'0 0.0
2018-Apr-15 13:00N 35°36' E 140°07'0 0.0
2018-Apr-15 12:31N 35°36' E 140°07'0 0.0
2018-Apr-15 12:01N 35°36' E 140°07'0 0.0
2018-Apr-15 11:30N 35°36' E 140°07'0 0.0
2018-Apr-15 11:00N 35°36' E 140°07'0 0.0
2018-Apr-15 10:30N 35°36' E 140°07'1 1.1
2018-Apr-15 10:01N 35°35' E 140°06'4 8.4
2018-Apr-15 09:30N 35°34' E 140°01'3 5.9
2018-Apr-15 09:00N 35°36' E 140°05'2 3.2
2018-Apr-15 08:30N 35°35' E 140°06'0 0.1
2018-Apr-15 08:00N 35°35' E 140°06'1 2.0
2018-Apr-15 07:31N 35°36' E 140°07'0 0.0
2018-Apr-15 07:00N 35°36' E 140°07'0 0.0
2018-Apr-15 06:31N 35°36' E 140°07'0 0.0
2018-Apr-15 06:01N 35°36' E 140°07'0 0.0
2018-Apr-15 05:31N 35°36' E 140°07'0 0.0
2018-Apr-15 05:00N 35°36' E 140°07'0 0.0
2018-Apr-15 04:31N 35°36' E 140°07'0 0.0
2018-Apr-15 04:00N 35°36' E 140°07'0 0.0
2018-Apr-15 03:31N 35°36' E 140°07'0 0.0
2018-Apr-15 03:01N 35°36' E 140°07'0 0.0
2018-Apr-15 02:30N 35°36' E 140°07'0 0.0
2018-Apr-15 02:01N 35°36' E 140°07'0 0.0
2018-Apr-15 01:31N 35°36' E 140°07'0 0.0
2018-Apr-15 01:01N 35°36' E 140°07'0 0.0
2018-Apr-15 00:31N 35°36' E 140°07'0 0.0
2018-Apr-15 00:00N 35°36' E 140°07'0 0.0
2018-Apr-14 23:31N 35°36' E 140°07'0 0.0
2018-Apr-14 23:01N 35°36' E 140°07'0 0.0
2018-Apr-14 22:31N 35°36' E 140°07'0 0.0
2018-Apr-14 22:00N 35°36' E 140°07'0 0.0
2018-Apr-14 21:31N 35°36' E 140°07'0 0.0
2018-Apr-14 21:01N 35°36' E 140°07'0 0.0
2018-Apr-14 20:30N 35°36' E 140°07'0 0.0
2018-Apr-14 20:00N 35°36' E 140°07'0 0.0
2018-Apr-14 19:30N 35°36' E 140°07'0 0.0
2018-Apr-14 19:00N 35°36' E 140°07'0 0.0
2018-Apr-14 18:30N 35°36' E 140°07'0 0.0
2018-Apr-14 18:01N 35°36' E 140°07'0 0.0
2018-Apr-14 17:30N 35°36' E 140°07'0 0.0
2018-Apr-14 17:01N 35°36' E 140°07'0 0.0
2018-Apr-14 16:31N 35°36' E 140°07'0 0.0
2018-Apr-14 16:01N 35°36' E 140°07'0 0.0
2018-Apr-14 15:31N 35°36' E 140°07'0 0.0
2018-Apr-14 15:00N 35°36' E 140°07'0 0.0
2018-Apr-14 14:31N 35°36' E 140°07'0 0.0
2018-Apr-14 14:01N 35°36' E 140°07'0 0.0
2018-Apr-14 13:31N 35°36' E 140°07'0 0.0
2018-Apr-14 13:01N 35°36' E 140°07'0 0.0
2018-Apr-14 12:31N 35°36' E 140°07'0 0.0
2018-Apr-14 12:00N 35°36' E 140°07'0 0.0
2018-Apr-14 11:30N 35°36' E 140°07'0 0.0
2018-Apr-14 11:01N 35°36' E 140°07'0 0.0
2018-Apr-14 10:31N 35°36' E 140°07'0 0.0
2018-Apr-14 10:00N 35°36' E 140°07'0 0.0
2018-Apr-14 09:30N 35°36' E 140°07'0 0.0
2018-Apr-14 09:00N 35°36' E 140°07'0 0.0
2018-Apr-14 08:31N 35°36' E 140°07'0 0.0
2018-Apr-14 08:00N 35°36' E 140°07'0 0.0
2018-Apr-14 07:30N 35°36' E 140°07'0 0.0
2018-Apr-14 07:00N 35°36' E 140°07'1 1.8
2018-Apr-14 06:30N 35°35' E 140°06'0 0.5
2018-Apr-14 06:00N 35°35' E 140°06'2 4.0
2018-Apr-14 05:30N 35°35' E 140°04'4 7.6
2018-Apr-14 05:00N 35°33' E 139°60'3 6.3
2018-Apr-14 04:30N 35°32' E 139°56'1 2.9
2018-Apr-14 04:00N 35°33' E 139°58'4 9.0
2018-Apr-14 03:30N 35°35' E 140°03'3 6.8
2018-Apr-14 03:00N 35°36' E 140°07'0 0.0
2018-Apr-14 02:30N 35°36' E 140°07'0 0.0
2018-Apr-14 02:00N 35°36' E 140°07'0 0.0
2018-Apr-14 01:29N 35°36' E 140°07'4 8.7
2018-Apr-14 01:01N 35°34' E 140°02'6 9.2
2018-Apr-14 00:20N 35°31' E 139°56'0 1.1
2018-Apr-14 00:00N 35°31' E 139°56'0 0.2
2018-Apr-13 23:31N 35°31' E 139°56'5 9.8
2018-Apr-13 23:00N 35°34' E 140°01'510.5
2018-Apr-13 22:31N 35°36' E 140°07'0 0.1
2018-Apr-13 22:01N 35°36' E 140°07'0 0.0
2018-Apr-13 21:30N 35°36' E 140°07'0 0.0
2018-Apr-13 21:00N 35°36' E 140°07'0 0.0
2018-Apr-13 20:30N 35°36' E 140°07'0 0.0
2018-Apr-13 20:01N 35°36' E 140°07'0 0.0
2018-Apr-13 19:00N 35°36' E 140°07'0 0.0
2018-Apr-13 18:31N 35°36' E 140°07'0 0.0
2018-Apr-13 18:00N 35°36' E 140°07'0 0.0
2018-Apr-13 17:30N 35°36' E 140°07'0 0.0
2018-Apr-13 16:30N 35°36' E 140°07'0 0.0
2018-Apr-13 16:00N 35°36' E 140°07'0 0.0
2018-Apr-13 15:30N 35°36' E 140°07'0 0.0
2018-Apr-13 15:01N 35°36' E 140°07'0 0.0
2018-Apr-13 14:30N 35°36' E 140°07'0 0.0
2018-Apr-13 14:01N 35°36' E 140°07'0 0.0
2018-Apr-13 13:31N 35°36' E 140°07'0 0.0
2018-Apr-13 13:01N 35°36' E 140°07'0 0.0
2018-Apr-13 12:30N 35°36' E 140°07'0 0.0
2018-Apr-13 12:00N 35°36' E 140°07'  

Dump ship's entire track history